Latest Weather Observations for Combienbar

IDV60801

Issued at 11:32 am EST Tuesday 28 June 2016 (issued every 30 minutes, with the page automatically refreshed every 10 minutes)

About weather observations | Map of weather stations | Latest weather observations for VIC | Other Formats
Station Details ID: 084143 Name: COMBIENBAR AWS Lat: -37.34 Lon: 149.02 Height: 640.0 m
Data from the previous 72 hours. | See also: Recent months at Combienbar
Date/Time
EST
Temp
°C
App
Temp
°C
Dew
Point
°C
Rel
Hum
%
Delta-T
°C
Wind Press
QNH
hPa
Press
MSL
hPa
Rain since
9am
mm
Dir  Spd
km/h
Gust
km/h
Spd
kts
Gust
kts
28/11:30am 9.7 7.6 1.8 58 3.4 WSW 2 6 1 3 1022.7 1023.1 0.0
28/11:00am 8.8 6.3 1.7 61 3.0 WSW 4 11 2 6 1023.1 1023.4 0.0
28/10:30am 8.4 6.3 1.6 62 2.9 SW 2 7 1 4 1023.1 1023.4 0.0
28/10:00am 7.9 4.9 1.1 62 2.8 SW 6 9 3 5 1022.7 1023.1 0.0
28/09:30am 7.1 4.1 0.8 64 2.6 SW 6 13 3 7 1022.6 1023.0 0.0
28/09:00am 6.5 3.8 0.4 65 2.5 SW 4 9 2 5 1022.4 1022.8 0.0
28/08:30am 6.0 3.3 0.1 66 2.4 SW 4 6 2 3 1022.0 1022.3 0.0
28/08:00am 5.8 2.7 0.0 66 2.3 SW 6 9 3 5 1021.5 1021.8 0.0
28/07:30am 5.6 2.5 0.0 67 2.2 SW 6 13 3 7 1021.3 1021.6 0.0
28/07:00am 5.6 2.3 0.0 67 2.2 WSW 7 13 4 7 1020.9 1021.3 0.0
28/06:30am 5.7 2.9 -0.4 65 2.4 WSW 4 13 2 7 1020.6 1020.9 0.0
28/06:00am 5.9 2.7 -0.2 65 2.4 SW 6 13 3 7 1020.1 1020.4 0.0
28/05:30am 5.9 2.6 0.0 66 2.4 SW 7 13 4 7 1019.7 1020.0 0.0
28/05:00am 5.7 2.6 0.1 67 2.2 SW 6 13 3 7 1019.4 1019.8 0.0
28/04:30am 6.1 2.8 0.0 65 2.5 SW 7 13 4 7 1019.2 1019.5 0.0
28/04:00am 5.5 2.8 0.1 68 2.2 SW 4 6 2 3 1019.3 1019.6 0.0
28/03:30am 5.5 2.8 0.3 69 2.1 SW 4 6 2 3 1019.3 1019.6 0.0
28/03:00am 5.8 2.6 0.6 69 2.1 SW 7 15 4 8 1019.2 1019.5 0.0
28/02:30am 5.5 2.5 1.1 73 1.8 SSW 6 11 3 6 1019.2 1019.5 0.0
28/02:00am 5.6 3.0 1.2 73 1.8 SW 4 7 2 4 1019.1 1019.4 0.0
28/01:30am 5.5 3.0 1.8 77 1.5 SW 4 9 2 5 1019.1 1019.4 0.0
28/01:00am 5.6 3.2 2.3 79 1.4 SW 4 11 2 6 1019.1 1019.4 0.0
28/12:30am 5.4 3.1 2.8 83 1.1 SW 4 6 2 3 1019.2 1019.5 0.0
28/12:00am 5.6 3.4 3.1 84 1.1 SW 4 9 2 5 1019.1 1019.4 0.0
 
Date/Time
EST
Temp
°C
App
Temp
°C
Dew
Point
°C
Rel
Hum
%
Delta-T
°C
Wind Press
QNH
hPa
Press
MSL
hPa
Rain since
9am
mm
Dir  Spd
km/h
Gust
km/h
Spd
kts
Gust
kts
27/11:30pm 6.0 3.4 3.3 83 1.2 SW 6 9 3 5 1019.0 1019.3 0.0
27/11:00pm 5.8 3.3 3.6 86 1.0 SW 6 9 3 5 1018.7 1019.0 0.0
27/10:30pm 6.1 4.0 3.9 86 1.0 SW 4 9 2 5 1018.8 1019.1 0.0
27/10:00pm 5.9 3.4 3.9 87 0.9 SW 6 11 3 6 1018.6 1018.9 0.0
27/09:30pm 5.9 3.4 3.9 87 0.9 SW 6 11 3 6 1018.6 1018.9 0.0
27/09:00pm 6.2 3.7 3.7 84 1.1 SW 6 13 3 7 1018.6 1018.9 0.0
27/08:30pm 5.9 3.7 3.1 82 1.2 SW 4 7 2 4 1018.4 1018.7 0.0
27/08:00pm 6.2 3.6 3.0 80 1.4 SW 6 11 3 6 1018.2 1018.5 0.0
27/07:30pm 6.4 4.5 2.7 77 1.6 SW 2 6 1 3 1017.7 1018.0 0.0
27/07:00pm 6.7 4.1 3.0 77 1.6 SW 6 13 3 7 1017.3 1017.6 0.0
27/06:30pm 6.7 4.1 3.0 77 1.6 SW 6 11 3 6 1017.1 1017.4 0.0
27/06:00pm 6.5 4.2 2.8 77 1.6 SW 4 6 2 3 1017.0 1017.3 0.0
27/05:30pm 6.5 4.2 2.8 77 1.6 SW 4 9 2 5 1016.7 1016.9 0.0
27/05:00pm 6.4 4.0 2.3 75 1.7 SW 4 9 2 5 1016.4 1016.6 0.0
27/04:30pm 5.9 3.8 2.0 76 1.6 SW 2 6 1 3 1015.8 1016.1 0.0
27/04:00pm 6.2 4.1 1.9 74 1.8 SW 2 6 1 3 1015.6 1015.9 0.0
27/03:30pm 7.0 4.9 1.5 68 2.3 SW 2 6 1 3 1015.2 1015.4 0.0
27/03:00pm 7.8 5.6 1.2 63 2.8 SW 2 11 1 6 1015.0 1015.2 0.0
27/02:30pm 8.2 6.1 1.4 62 2.9 SW 2 7 1 4 1014.8 1015.0 0.0
27/02:00pm 8.0 6.3 1.8 65 2.7 CALM 0 2 0 1 1014.6 1014.8 0.0
27/01:30pm 7.4 5.6 1.5 66 2.5 CALM 0 0 0 0 1014.7 1014.9 0.0
27/01:00pm 7.0 5.2 1.3 67 2.4 CALM 0 0 0 0 1014.8 1015.0 0.0
27/12:30pm 6.9 4.7 0.8 65 2.5 SW 2 4 1 2 1015.0 1015.2 0.0
27/12:00pm 6.7 4.0 0.2 63 2.6 SW 4 15 2 8 1015.3 1015.5 0.0
27/11:30am 6.4 4.2 1.3 70 2.1 SSW 2 6 1 3 1015.6 1015.9 0.0
27/11:00am 6.0 4.1 0.6 68 2.2 CALM 0 2 0 1 1015.8 1016.1 0.0
27/10:30am 6.0 4.1 0.3 67 2.3 CALM 0 0 0 0 1016.0 1016.3 0.0
27/10:00am 5.3 3.4 0.5 71 1.9 CALM 0 0 0 0 1016.2 1016.4 0.0
27/09:30am 5.2 3.3 0.4 71 1.9 CALM 0 4 0 2 1016.0 1016.3 0.0
27/09:00am 4.1 2.3 1.1 81 1.2 CALM 0 0 0 0 1015.8 1016.1 0.0
27/08:30am 2.9 1.1 1.1 88 0.7 CALM 0 0 0 0 1015.6 1015.9 0.0
27/08:00am 2.4 0.5 0.8 89 0.6 CALM 0 0 0 0 1015.5 1015.8 0.0
27/07:30am 2.3 0.5 1.1 92 0.5 CALM 0 0 0 0 1015.3 1015.5 0.0
27/07:00am 2.3 0.4 0.7 89 0.6 CALM 0 0 0 0 1015.1 1015.3 0.0
27/06:30am 2.3 0.4 0.7 89 0.6 CALM 0 0 0 0 1014.8 1015.0 0.0
27/06:00am 2.4 0.5 0.8 89 0.6 CALM 0 0 0 0 1014.3 1014.6 0.0
27/05:30am 2.5 0.6 0.4 86 0.8 CALM 0 0 0 0 1014.3 1014.6 0.0
27/05:00am 2.9 0.9 0.1 82 1.1 CALM 0 0 0 0 1014.2 1014.5 0.0
27/04:30am 3.1 1.0 -0.5 77 1.4 CALM 0 0 0 0 1014.3 1014.6 0.0
27/04:00am 3.6 1.4 -1.5 69 1.9 CALM 0 0 0 0 1014.3 1014.6 0.0
27/03:30am 3.9 1.7 -1.5 68 2.0 CALM 0 0 0 0 1014.4 1014.7 0.0
27/03:00am 4.0 1.8 -1.2 69 2.0 CALM 0 0 0 0 1014.4 1014.7 0.0
27/02:30am 4.4 2.2 -1.4 66 2.2 CALM 0 0 0 0 1014.4 1014.7 0.0
27/02:00am 4.9 2.6 -2.0 61 2.6 CALM 0 0 0 0 1014.4 1014.7 0.0
27/01:30am 4.7 2.4 -2.2 61 2.6 CALM 0 0 0 0 1014.4 1014.7 0.0
27/01:00am 5.1 2.9 -1.6 62 2.6 CALM 0 0 0 0 1014.3 1014.6 0.0
27/12:30am 5.2 3.0 -1.9 60 2.7 CALM 0 0 0 0 1014.6 1014.8 0.0
27/12:00am 5.2 3.0 -1.3 63 2.5 CALM 0 0 0 0 1014.8 1015.0 0.0
 
Date/Time
EST
Temp
°C
App
Temp
°C
Dew
Point
°C
Rel
Hum
%
Delta-T
°C
Wind Press
QNH
hPa
Press
MSL
hPa
Rain since
9am
mm
Dir  Spd
km/h
Gust
km/h
Spd
kts
Gust
kts
26/11:30pm 5.3 3.1 -1.4 62 2.6 CALM 0 0 0 0 1015.0 1015.2 0.0
26/11:00pm 5.3 3.2 -0.7 65 2.3 CALM 0 0 0 0 1015.1 1015.3 0.0
26/10:30pm 5.5 3.6 0.5 70 2.0 CALM 0 2 0 1 1015.2 1015.4 0.0
26/10:00pm 6.2 3.9 0.5 67 2.3 W 2 4 1 2 1015.3 1015.5 0.0
26/09:30pm 6.2 4.5 1.7 73 1.9 CALM 0 0 0 0 1015.5 1015.8 0.0
26/09:00pm 6.4 4.7 1.9 73 1.9 CALM 0 2 0 1 1015.6 1015.9 0.0
26/08:30pm 6.8 5.1 2.1 72 2.0 CALM 0 0 0 0 1015.8 1016.1 0.0
26/08:00pm 6.8 5.1 1.9 71 2.1 CALM 0 4 0 2 1015.9 1016.2 0.0
26/07:30pm 6.1 4.7 3.8 85 1.0 CALM 0 0 0 0 1016.0 1016.3 0.0
26/07:00pm 6.0 4.7 4.0 87 0.9 CALM 0 0 0 0 1016.0 1016.3 0.0
26/06:30pm 6.1 4.7 3.6 84 1.1 CALM 0 0 0 0 1015.8 1016.1 0.0
26/06:00pm 6.4 5.0 3.6 82 1.2 CALM 0 0 0 0 1015.8 1016.1 0.0
26/05:30pm 6.6 5.2 3.8 82 1.2 CALM 0 0 0 0 1015.7 1016.0 0.0
26/05:00pm 6.7 5.3 3.5 80 1.4 CALM 0 0 0 0 1015.7 1016.0 0.0
26/04:30pm 6.9 5.5 3.3 78 1.6 CALM 0 0 0 0 1015.6 1015.9 0.0
26/04:00pm 7.2 5.8 3.3 76 1.7 CALM 0 0 0 0 1015.6 1015.9 0.0
26/03:30pm 8.1 6.7 3.8 74 1.9 CALM 0 0 0 0 1015.6 1015.9 0.0
26/03:00pm 8.2 6.8 3.5 72 2.1 CALM 0 0 0 0 1015.8 1016.1 0.0
26/02:30pm 8.6 7.3 4.2 74 2.0 CALM 0 0 0 0 1016.2 1016.4 0.0
26/02:00pm 9.4 8.1 4.2 70 2.4 CALM 0 0 0 0 1016.6 1016.8 0.0
26/01:30pm 9.7 8.0 4.1 68 2.6 ESE 2 6 1 3 1016.6 1016.8 0.0
26/01:00pm 9.6 8.4 4.4 70 2.4 CALM 0 0 0 0 1016.7 1016.9 0.0
26/12:30pm 9.3 7.9 3.7 68 2.5 CALM 0 2 0 1 1017.1 1017.4 0.0
26/12:00pm 9.8 8.5 4.0 67 2.6 CALM 0 6 0 3 1017.9 1018.1 0.0
26/11:30am 9.2 7.9 4.0 70 2.4 CALM 0 2 0 1 1018.7 1019.0 0.0
26/11:00am 9.2 7.8 3.4 67 2.6 CALM 0 0 0 0 1019.3 1019.6 0.0
26/10:30am 8.8 7.0 3.6 70 2.3 W 2 6 1 3 1019.8 1020.1 0.0
26/10:00am 7.6 6.2 3.6 76 1.8 CALM 0 0 0 0 1020.1 1020.4 0.0
26/09:30am 6.8 5.0 3.4 79 1.5 SW 2 6 1 3 1019.9 1020.2 0.0
26/09:00am 6.3 4.0 2.9 79 1.5 WSW 4 7 2 4 1019.8 1020.1 0.2
26/08:30am 5.7 3.8 2.7 81 1.3 WSW 2 9 1 5 1019.6 1019.9 0.2
26/08:00am 4.9 3.3 2.6 85 1.0 CALM 0 2 0 1 1019.6 1019.9 0.2
26/07:30am 4.4 2.7 1.9 84 1.0 CALM 0 0 0 0 1019.4 1019.8 0.2
26/07:00am 4.3 2.7 2.2 86 0.9 CALM 0 2 0 1 1019.3 1019.6 0.2
26/06:30am 3.9 2.2 2.1 88 0.7 CALM 0 4 0 2 1018.9 1019.2 0.2
26/06:00am 4.3 2.6 2.0 85 1.0 CALM 0 0 0 0 1018.9 1019.2 0.2
26/05:30am 4.2 2.2 2.2 87 0.8 WNW 2 6 1 3 1018.8 1019.1 0.2
26/05:00am 3.6 2.0 2.3 91 0.5 CALM 0 0 0 0 1018.9 1019.2 0.2
26/04:30am 3.8 2.1 1.8 87 0.8 CALM 0 4 0 2 1018.7 1019.0 0.2
26/04:00am 4.2 2.1 1.9 85 0.9 WNW 2 6 1 3 1018.7 1019.0 0.2
26/03:30am 4.1 1.7 2.1 87 0.8 SW 4 11 2 6 1018.8 1019.1 0.2
26/03:00am 3.5 1.9 2.2 91 0.5 CALM 0 4 0 2 1018.6 1018.9 0.2
26/02:30am 3.6 2.0 2.3 91 0.5 CALM 0 4 0 2 1018.9 1019.2 0.2
26/02:00am 3.7 2.0 1.7 87 0.8 CALM 0 2 0 1 1018.9 1019.2 0.2
26/01:30am 4.3 2.3 2.2 86 0.9 SW 2 6 1 3 1018.8 1019.1 0.2
26/01:00am 4.5 2.5 2.5 87 0.8 SW 2 4 1 2 1019.0 1019.3 0.2
26/12:30am 4.5 2.5 2.5 87 0.8 SW 2 9 1 5 1019.1 1019.4 0.2
26/12:00am 4.3 2.3 2.3 87 0.8 SW 2 6 1 3 1019.4 1019.8 0.2
 
Date/Time
EST
Temp
°C
App
Temp
°C
Dew
Point
°C
Rel
Hum
%
Delta-T
°C
Wind Press
QNH
hPa
Press
MSL
hPa
Rain since
9am
mm
Dir  Spd
km/h
Gust
km/h
Spd
kts
Gust
kts
25/11:30pm 4.7 2.0 2.4 85 1.0 SW 6 9 3 5 1019.7 1020.0 0.2
25/11:00pm 4.8 2.1 2.5 85 1.0 SW 6 9 3 5 1020.0 1020.3 0.2
25/10:30pm 4.2 2.3 2.6 89 0.7 SSW 2 6 1 3 1020.0 1020.3 0.2
25/10:00pm 4.5 1.5 2.2 85 1.0 WSW 7 15 4 8 1019.8 1020.1 0.2
25/09:30pm 4.7 1.7 2.2 84 1.0 SW 7 30 4 16 1019.9 1020.2 0.2
25/09:00pm 4.6 1.8 2.1 84 1.0 SSW 6 13 3 7 1020.0 1020.3 0.2
25/08:30pm 4.7 1.7 2.1 83 1.1 SW 7 13 4 7 1019.9 1020.2 0.2
25/08:00pm 4.4 1.4 2.3 86 0.9 SW 7 19 4 10 1019.9 1020.2 0.0
25/07:30pm 4.4 1.0 1.9 84 1.0 SW 9 15 5 8 1019.8 1020.1 0.0
25/07:00pm 4.1 0.3 2.0 86 0.9 SW 11 26 6 14 1019.8 1020.1 0.0
25/06:30pm 4.2 0.0 1.6 83 1.1 SW 13 24 7 13 1019.3 1019.6 0.0
25/06:00pm 4.2 0.3 1.4 82 1.1 SW 11 22 6 12 1019.1 1019.4 0.0
25/05:30pm 4.2 1.1 1.2 81 1.2 SW 7 15 4 8 1019.1 1019.4 0.0
25/05:00pm 4.5 0.9 0.8 77 1.5 SW 9 17 5 9 1018.7 1019.0 0.0
25/04:30pm 4.7 1.5 0.8 76 1.6 SW 7 13 4 7 1018.8 1019.1 0.0
25/04:00pm 4.7 1.5 0.5 74 1.7 SW 7 15 4 8 1018.5 1018.8 0.0
25/03:30pm 4.8 1.8 0.9 76 1.6 SW 6 17 3 9 1018.4 1018.7 0.0
25/03:00pm 4.5 1.4 1.4 80 1.3 SW 7 15 4 8 1018.2 1018.5 0.0
25/02:30pm 5.0 2.0 1.1 76 1.6 SSW 6 20 3 11 1018.0 1018.2 0.0
25/02:00pm 4.9 1.7 0.7 74 1.7 SW 7 17 4 9 1017.6 1017.9 0.0
25/01:30pm 5.3 2.5 2.0 79 1.4 SSW 6 11 3 6 1017.9 1018.1 0.0
25/01:00pm 5.0 1.8 0.9 75 1.7 SW 7 17 4 9 1017.9 1018.1 0.0
25/12:30pm 5.1 1.9 1.0 75 1.7 SW 7 17 4 9 1018.1 1018.3 0.0
25/12:00pm 4.5 0.9 0.8 77 1.5 SW 9 20 5 11 1018.0 1018.2 0.0

Other Formats:

Comma delimited format used in spreadsheet applications
http://www.bom.gov.au/fwo/IDV60801/IDV60801.94914.axf

JavaScript Object Notation format (JSON) in row-major order
http://www.bom.gov.au/fwo/IDV60801/IDV60801.94914.json